ASN logo
ASN Wikibase Occurrence # 195928
Last updated: 23 November 2020
This information is added by users of ASN. Neither ASN nor the Flight Safety Foundation are responsible for the completeness or correctness of this information. If you feel this information is incomplete or incorrect, you can submit corrected information.

Date:04-JUN-2017
Time:18:12 LT
Type:Silhouette image of generic AT45 model; specific model in this crash may look slightly different
ATR 42-500
Owner/operator:TAROM
Registration: YR-ATB
C/n / msn: 569
Fatalities:Fatalities: 0 / Occupants: 43
Other fatalities:0
Aircraft damage: Substantial
Category:Serious incident
Location:Chișinău International Airport (KIV) -   Moldova
Phase: Landing
Nature:Passenger - Scheduled
Departure airport:Bucharest-Henri Coanda International Airport (OTP/LROP) [YR]
Destination airport:Chișinău International Airport (KIV)
Investigating agency: CIAS Romania
Narrative:
Tarom flight RO207, an ATR 42-500, suffered a runway excursion after landing at Chișinău International Airport in Moldova. There were no personal injuries.
After landing on runway 08 of Chișinău International Airport (KIV), the flight crew lost directional control and the aircraft exited the runway on the right side. It rolled on the grass for almost 90 m. The crew tried to return to the runway surface by using steering and ailerons and by applying a thrust differential of the engines.
When the aircraft returned to the runway surface, the main landing gear wheels hit the concrete support of a signal light situated on the runway edge. The aircraft performed an accentuated turn to the left, crossed the runway diagonally and exited on the opposite side (runway left side), stopping with the landing gear on the grass surface on the edge.


Weather about the incident time: 15:12Z (18:12 LT):
LUKK 041600Z 17014KT CAVOK 25/14 Q1014 R08/D NOSIG
LUKK 041530Z 17016KT CAVOK 25/13 Q1015 R08/D NOSIG
>> LUKK 041500Z 17014KT CAVOK 25/13 Q1015 R08/D NOSIG

The probable cause of this serious incident is the inadequate operation of the control column and rudder pedal after the aircraft touchdown, which led to the partial loss of aircraft control during rolling and to the impossibility of maintaining it within the runway rolling surface limits.

Contributing factors were the:
Failure to perform the Descent Check during the approach flight
Failure to correct heading deviation smoothly, using the rudder above 70 kt and progressively the steering (hydraulic nose wheels control system on ground) below 70 kt
Failure to operate the aircraft braking system.

Sources:

http://www.cias.gov.ro/images/rapoarte/20170604_RP_YR-ATB_RO.pdf
http://www.aias.gov.ro/images/publicatii/rapoarte-de-investigatie/20170604_RF_YR-ATB_EN.pdf
http://aerossurance.com/safety-management/checklist-culture-atr42-re/

Other occurrences involving this aircraft

19 Jan 2012 YR-ATB TAROM 0 Near Iasi - LRIA non

Media:


Images:

Photo of YR-ATB courtesy AirHistory.net


Budapest - Ferenc Liszt (LHBP / BUD)
31 July 2013; (c) Richard Vandervord

Revision history:

Date/timeContributorUpdates
05-Jun-2017 07:58 gerard57 Added
05-Jun-2017 08:04 harro Updated [Time, Cn, Location, Departure airport, Destination airport, Embed code, Narrative]
05-Jun-2017 08:38 harro Updated [Narrative]
30-Oct-2017 20:50 harro Updated [Total occupants, Source, Narrative]
04-Oct-2020 09:57 Aerossurance Updated [Source, Damage, Narrative]
04-Oct-2020 10:37 Aerossurance Updated [Source]
04-Oct-2020 10:46 Aerossurance Updated [Embed code]

Corrections or additions? ... Edit this accident description